Anne Mette Bulker — 2FER7 — position and weather

sailwx.info

Track history (hours):
 
Tides and Currents Weather Stations Pressure Air Temp Water Temp Dewpoint Dewpoint Depression Visibility Wind Speed Wind Dir Waves Ship Positions

Anne Mette Bulker

Last reported at 2017-Sep-27 11:54 UTC. Time now 2017-Dec-16 22:41 UTC.
Position N 26°47' W 014°46'.
Warning: this ship's position is months out of date.

Length 185 m; draft 10.1 m.

Type: Cargo ship. MMSI: 235090622.

Date/timePositionNaut miles runAvg speedWind from/ knotsBaromVisibWave heightAir tempDewpointWater temp
2017-Sep-27 11:54N 26°47' W 014°46'512.1
2017-Sep-27 11:30N 26°51' W 014°42'811.9
2017-Sep-27 10:51N 26°57' W 014°37'411.8
2017-Sep-27 10:31N 26°60' W 014°34'611.5
2017-Sep-27 10:00N 27°04' W 014°30'611.4
2017-Sep-27 09:29N 27°09' W 014°25'911.6
2017-Sep-27 08:44N 27°15' W 014°19'311.6
2017-Sep-27 08:31N 27°17' W 014°17'711.7
2017-Sep-27 07:55N 27°23' W 014°12'511.6
2017-Sep-27 07:31N 27°26' W 014°09'611.2
2017-Sep-27 06:58N 27°31' W 014°04'511.2
2017-Sep-27 06:30N 27°35' W 014°00'611.5
2017-Sep-27 06:00N 27°39' W 013°56'611.6
2017-Sep-27 05:30N 27°44' W 013°52'611.9
2017-Sep-27 05:00N 27°48' W 013°47'612.0
2017-Sep-27 04:30N 27°52' W 013°43'611.7
2017-Sep-27 04:00N 27°57' W 013°39'611.5
2017-Sep-27 03:30N 28°01' W 013°35'711.5
2017-Sep-27 02:52N 28°08' W 013°30'411.4
2017-Sep-27 02:30N 28°11' W 013°27'611.6
2017-Sep-27 02:00N 28°16' W 013°24'26811.5
2017-Sep-26 02:46N 32°00' W 010°34'311.5
2017-Sep-26 02:30N 32°02' W 010°32'1711.2
2017-Sep-26 01:01N 32°14' W 010°18'011.3
2017-Sep-26 00:59N 32°15' W 010°18'2011.5
2017-Sep-25 23:14N 32°30' W 010°02'311.3
2017-Sep-25 22:55N 32°32' W 009°60'1011.5
2017-Sep-25 22:04N 32°40' W 009°52'312.0
2017-Sep-25 21:50N 32°42' W 009°49'412.4
2017-Sep-25 21:28N 32°45' W 009°46'612.3
2017-Sep-25 21:01N 32°49' W 009°41'1611.6
2017-Sep-25 19:37N 33°01' W 009°28'311.3
2017-Sep-25 19:23N 33°03' W 009°26'511.6
2017-Sep-25 18:59N 33°06' W 009°22'17211.5
2017-Sep-25 04:06N 35°14' W 007°03'111.1
2017-Sep-25 04:00N 35°15' W 007°02'8310.2
2017-Sep-24 19:55N 35°57' W 005°35'4 9.4
2017-Sep-24 19:30N 35°59' W 005°30'510.1
2017-Sep-24 19:00N 36°01' W 005°25'9 8.9
2017-Sep-24 17:58N 36°10' W 005°24'0 0.4
2017-Sep-24 17:22N 36°10' W 005°24'0 0.3
2017-Sep-24 16:58N 36°10' W 005°24'0 0.2
2017-Sep-24 16:30N 36°10' W 005°24'0 0.1
2017-Sep-24 15:59N 36°10' W 005°24'0 0.1
2017-Sep-24 15:30N 36°10' W 005°24'0 0.0
2017-Sep-24 15:00N 36°10' W 005°24'0 0.0
2017-Sep-24 14:29N 36°10' W 005°24'0 0.0
2017-Sep-24 13:58N 36°10' W 005°24'0 0.0
2017-Sep-24 13:19N 36°10' W 005°24'0 0.1
2017-Sep-24 13:00N 36°10' W 005°24'0 0.1
2017-Sep-24 12:29N 36°10' W 005°24'6 0.9
2017-Sep-24 06:15N 36°05' W 005°21'2 6.9
2017-Sep-24 06:00N 36°05' W 005°19'2 3.2
2017-Sep-24 05:30N 36°06' W 005°18'2 3.3
2017-Sep-24 05:00N 36°06' W 005°16'2 3.7
2017-Sep-24 04:30N 36°06' W 005°13'4 7.3
2017-Sep-24 04:00N 36°07' W 005°09'5 8.3
2017-Sep-24 03:23N 36°08' W 005°03'  
2017-Sep-20 07:54N 36°24' E 013°53'4 8.4
2017-Sep-20 07:29N 36°23' E 013°57'4 8.4
2017-Sep-20 06:59N 36°22' E 014°02'4 8.4
2017-Sep-20 06:30N 36°20' E 014°07'4 8.5
2017-Sep-20 06:00N 36°19' E 014°12'4 8.4
2017-Sep-20 05:30N 36°17' E 014°17'4 8.6
2017-Sep-20 05:01N 36°16' E 014°21'4 8.7
2017-Sep-20 04:30N 36°14' E 014°26'4 8.3
2017-Sep-20 04:00N 36°13' E 014°31'4 8.1
2017-Sep-20 03:30N 36°11' E 014°36'4 8.2
2017-Sep-20 03:00N 36°10' E 014°41'312 9.7
2017-Sep-18 18:55N 34°18' E 020°38'410.0
2017-Sep-18 18:30N 34°17' E 020°43'23 9.8
2017-Sep-18 16:11N 34°09' E 021°09'2 9.5
2017-Sep-18 16:00N 34°08' E 021°11'7 9.2
2017-Sep-18 15:13N 34°06' E 021°19'10 9.2
2017-Sep-18 14:09N 34°02' E 021°30'7 9.2
2017-Sep-18 13:24N 33°60' E 021°37'  
Track history (hours):
 
Tides and Currents Weather Stations Pressure Air Temp Water Temp Dewpoint Dewpoint Depression Visibility Wind Speed Wind Dir Waves Ship Positions

Anne Mette Bulker

Last reported at 2017-Sep-27 11:54 UTC. Time now 2017-Dec-16 22:41 UTC.
Position N 26°47' W 014°46'.
Warning: this ship's position is months out of date.

Length 185 m; draft 10.1 m.

Type: Cargo ship. MMSI: 235090622.

Date/timePositionNaut miles runAvg speedWind from/ knotsBaromVisibWave heightAir tempDewpointWater temp
2017-Sep-27 11:54N 26°47' W 014°46'512.1
2017-Sep-27 11:30N 26°51' W 014°42'811.9
2017-Sep-27 10:51N 26°57' W 014°37'411.8
2017-Sep-27 10:31N 26°60' W 014°34'611.5
2017-Sep-27 10:00N 27°04' W 014°30'611.4
2017-Sep-27 09:29N 27°09' W 014°25'911.6
2017-Sep-27 08:44N 27°15' W 014°19'311.6
2017-Sep-27 08:31N 27°17' W 014°17'711.7
2017-Sep-27 07:55N 27°23' W 014°12'511.6
2017-Sep-27 07:31N 27°26' W 014°09'611.2
2017-Sep-27 06:58N 27°31' W 014°04'511.2
2017-Sep-27 06:30N 27°35' W 014°00'611.5
2017-Sep-27 06:00N 27°39' W 013°56'611.6
2017-Sep-27 05:30N 27°44' W 013°52'611.9
2017-Sep-27 05:00N 27°48' W 013°47'612.0
2017-Sep-27 04:30N 27°52' W 013°43'611.7
2017-Sep-27 04:00N 27°57' W 013°39'611.5
2017-Sep-27 03:30N 28°01' W 013°35'711.5
2017-Sep-27 02:52N 28°08' W 013°30'411.4
2017-Sep-27 02:30N 28°11' W 013°27'611.6
2017-Sep-27 02:00N 28°16' W 013°24'26811.5
2017-Sep-26 02:46N 32°00' W 010°34'311.5
2017-Sep-26 02:30N 32°02' W 010°32'1711.2
2017-Sep-26 01:01N 32°14' W 010°18'011.3
2017-Sep-26 00:59N 32°15' W 010°18'2011.5
2017-Sep-25 23:14N 32°30' W 010°02'311.3
2017-Sep-25 22:55N 32°32' W 009°60'1011.5
2017-Sep-25 22:04N 32°40' W 009°52'312.0
2017-Sep-25 21:50N 32°42' W 009°49'412.4
2017-Sep-25 21:28N 32°45' W 009°46'612.3
2017-Sep-25 21:01N 32°49' W 009°41'1611.6
2017-Sep-25 19:37N 33°01' W 009°28'311.3
2017-Sep-25 19:23N 33°03' W 009°26'511.6
2017-Sep-25 18:59N 33°06' W 009°22'17211.5
2017-Sep-25 04:06N 35°14' W 007°03'111.1
2017-Sep-25 04:00N 35°15' W 007°02'8310.2
2017-Sep-24 19:55N 35°57' W 005°35'4 9.4
2017-Sep-24 19:30N 35°59' W 005°30'510.1
2017-Sep-24 19:00N 36°01' W 005°25'9 8.9
2017-Sep-24 17:58N 36°10' W 005°24'0 0.4
2017-Sep-24 17:22N 36°10' W 005°24'0 0.3
2017-Sep-24 16:58N 36°10' W 005°24'0 0.2
2017-Sep-24 16:30N 36°10' W 005°24'0 0.1
2017-Sep-24 15:59N 36°10' W 005°24'0 0.1
2017-Sep-24 15:30N 36°10' W 005°24'0 0.0
2017-Sep-24 15:00N 36°10' W 005°24'0 0.0
2017-Sep-24 14:29N 36°10' W 005°24'0 0.0
2017-Sep-24 13:58N 36°10' W 005°24'0 0.0
2017-Sep-24 13:19N 36°10' W 005°24'0 0.1
2017-Sep-24 13:00N 36°10' W 005°24'0 0.1
2017-Sep-24 12:29N 36°10' W 005°24'6 0.9
2017-Sep-24 06:15N 36°05' W 005°21'2 6.9
2017-Sep-24 06:00N 36°05' W 005°19'2 3.2
2017-Sep-24 05:30N 36°06' W 005°18'2 3.3
2017-Sep-24 05:00N 36°06' W 005°16'2 3.7
2017-Sep-24 04:30N 36°06' W 005°13'4 7.3
2017-Sep-24 04:00N 36°07' W 005°09'5 8.3
2017-Sep-24 03:23N 36°08' W 005°03'  
2017-Sep-20 07:54N 36°24' E 013°53'4 8.4
2017-Sep-20 07:29N 36°23' E 013°57'4 8.4
2017-Sep-20 06:59N 36°22' E 014°02'4 8.4
2017-Sep-20 06:30N 36°20' E 014°07'4 8.5
2017-Sep-20 06:00N 36°19' E 014°12'4 8.4
2017-Sep-20 05:30N 36°17' E 014°17'4 8.6
2017-Sep-20 05:01N 36°16' E 014°21'4 8.7
2017-Sep-20 04:30N 36°14' E 014°26'4 8.3
2017-Sep-20 04:00N 36°13' E 014°31'4 8.1
2017-Sep-20 03:30N 36°11' E 014°36'4 8.2
2017-Sep-20 03:00N 36°10' E 014°41'312 9.7
2017-Sep-18 18:55N 34°18' E 020°38'410.0
2017-Sep-18 18:30N 34°17' E 020°43'23 9.8
2017-Sep-18 16:11N 34°09' E 021°09'2 9.5
2017-Sep-18 16:00N 34°08' E 021°11'7 9.2
2017-Sep-18 15:13N 34°06' E 021°19'10 9.2
2017-Sep-18 14:09N 34°02' E 021°30'7 9.2
2017-Sep-18 13:24N 33°60' E 021°37'  

Dump ship's entire track history